Detall de PIREP

Printer-friendly versionPDF version

[2011/01/03 16:46:00]
Flight IATA:CT1004
Pilot Number:042
Company ICAO:CAT
Aircraft Type:B763/F
PAX:120
Departing Airport: LMML
Destination Airport: LIEA
Alternate Airport:LIEO
Online: VATSIM
Route:GZO UM732 SODIO
Flight Level:FL340
No Slew and time accel
No pause
Crash detect
Detect pilot in Cockpit between each 30 and 45 minutes
16:46 Zero fuel Weight: 244977 Lbs, Fuel Weight: 161228 Lbs
16:46 VATSIM:LMML 031615Z VRB01KT 9999 SHRA BKN016TCU 11/10 Q1014 NOSIG
16:46 VATSIM:LIEA 031620Z 02005KT 9999 FEW030 10/05 Q1017
16:46 VOICE CATALONIAN/X-MAS CHARTER
16:51 Parking Brakes off
16:56 Take-off
16:56 Take off Weight: 403616 Lbs
16:56 Wind: 359 @ 001 Knots Heading: 315
16:56 POS N35 50 56 E014 29 24
16:56 Gear Up: 185 Knots
16:56 Flaps:3 at 185 Knots
16:56 Flaps:2 at 192 Knots
16:57 Flaps:1 at 228 Knots
16:57 Flaps:0 at 238 Knots
17:11 Wind:339@023 Knots Heading: 311 Ground Speed: 440 Knots Altitude 29832 ft
17:13 TOC
17:13 Fuel Weight: 150740 Lb
17:26 Wind:312@024 Knots Heading: 309 Ground Speed: 429 Knots Altitude 34041 ft
17:39 TOD
17:39 Fuel Weight: 145342 Lb
17:41 Wind:293@025 Knots Heading: 307 Ground Speed: 398 Knots Altitude 31640 ft
17:56 Wind:346@013 Knots Heading: 328 Ground Speed: 269 Knots Altitude 9612 ft
17:59 Flaps:1 at 218 Knots
18:00 Flaps:2 at 211 Knots
18:02 Flaps:3 at 202 Knots
18:07 Gear Down: 161 Knots
18:07 Flaps:4 at 161 Knots
18:07 Flaps:5 at 162 Knots
18:08 Flaps:6 at 161 Knots
18:10 TouchDown:Rate -66 ft/min Speed: 146 Knots
18:10 VATSIM:LIEA 031750Z 04003KT 010V070 9999 FEW030 09/05 Q1018
18:10 Land
18:10 Wind:041@005 Knots
18:10 Heading: 023
18:10 Flight Duration: 01:14
18:10 Landing Weight: 386142 Lbs
18:10 POS N40 38 03 E008 17 31
18:15 Parking brakes on
18:15 Block to Block Duration: 01:24
18:15 Final Fuel: 140174 Lbls
18:15 Spent Fuel: 21053 Lbls
18:15 Flight Length: 335 NM
18:15 TOD Land Length: 138 NM

Exportar CSV

Powered by Drupal - Modified by Danger4k